Mears, Virginia
Current Conditions -  °F | °C
As of 9:54 AM on Sunday 21 Dec 2014 (Local Time) from KWAL Reporting Station
Overcast Overcast  
Wind Chill: 32°   Ceiling: 7000
Heat Index: 36°   Visibility: 10mi
Dew Point: 27°   Wind: 5mph
Humidity: 70%   Direction: 20°NNE
Pressure: 30.36"   Gusts: NA
Location:  37.86°N, 75.62°W
Report Text: KWAL 211454Z AUTO 02004KT 10SM OVC070 02/M03 A3036 RMK AO2 SLP276 T00221028 52008
Loading
Personal Weather Stations






























Interactive Weather Map New forecast layout! Learn more

10-Day Weather Forecast

Advertisements
Track Severe Weather on mobile